sensor_id;sensor_type;location;lat;lon;timestamp;P1;durP1;ratioP1;P2;durP2;ratioP2
42096;SDS011;27754;45.414;11.084;2022-08-25T00:00:11;3.10;;;1.88;;
42096;SDS011;27754;45.414;11.084;2022-08-25T00:02:39;6.22;;;2.00;;
42096;SDS011;27754;45.414;11.084;2022-08-25T00:05:21;3.13;;;1.85;;
42096;SDS011;27754;45.414;11.084;2022-08-25T00:07:52;2.67;;;1.70;;
42096;SDS011;27754;45.414;11.084;2022-08-25T00:10:20;2.58;;;2.00;;
42096;SDS011;27754;45.414;11.084;2022-08-25T00:12:47;4.25;;;1.90;;
42096;SDS011;27754;45.414;11.084;2022-08-25T00:15:14;3.88;;;2.00;;
42096;SDS011;27754;45.414;11.084;2022-08-25T00:17:41;4.78;;;1.92;;
42096;SDS011;27754;45.414;11.084;2022-08-25T00:20:08;3.50;;;1.55;;
42096;SDS011;27754;45.414;11.084;2022-08-25T00:22:36;2.20;;;1.73;;
42096;SDS011;27754;45.414;11.084;2022-08-25T00:25:03;5.28;;;1.95;;
42096;SDS011;27754;45.414;11.084;2022-08-25T00:27:30;3.45;;;1.55;;
42096;SDS011;27754;45.414;11.084;2022-08-25T00:29:57;4.47;;;2.10;;
42096;SDS011;27754;45.414;11.084;2022-08-25T00:32:25;4.43;;;2.22;;
42096;SDS011;27754;45.414;11.084;2022-08-25T00:34:52;3.42;;;1.92;;
42096;SDS011;27754;45.414;11.084;2022-08-25T00:37:19;3.53;;;2.58;;
42096;SDS011;27754;45.414;11.084;2022-08-25T00:39:46;6.57;;;3.08;;
42096;SDS011;27754;45.414;11.084;2022-08-25T00:42:13;4.78;;;2.35;;
42096;SDS011;27754;45.414;11.084;2022-08-25T00:44:41;4.47;;;2.45;;
42096;SDS011;27754;45.414;11.084;2022-08-25T00:47:09;2.97;;;2.50;;
42096;SDS011;27754;45.414;11.084;2022-08-25T00:49:53;4.07;;;2.10;;
42096;SDS011;27754;45.414;11.084;2022-08-25T00:52:25;3.42;;;1.80;;
42096;SDS011;27754;45.414;11.084;2022-08-25T00:54:57;4.82;;;2.05;;
42096;SDS011;27754;45.414;11.084;2022-08-25T00:57:35;5.03;;;1.92;;
42096;SDS011;27754;45.414;11.084;2022-08-25T01:00:16;5.38;;;2.00;;
42096;SDS011;27754;45.414;11.084;2022-08-25T01:02:49;6.43;;;2.00;;
42096;SDS011;27754;45.414;11.084;2022-08-25T01:05:16;4.60;;;1.83;;
42096;SDS011;27754;45.414;11.084;2022-08-25T01:07:44;3.53;;;2.20;;
42096;SDS011;27754;45.414;11.084;2022-08-25T01:10:12;3.05;;;2.25;;
42096;SDS011;27754;45.414;11.084;2022-08-25T01:12:39;5.85;;;2.65;;
42096;SDS011;27754;45.414;11.084;2022-08-25T01:15:08;4.78;;;1.90;;
42096;SDS011;27754;45.414;11.084;2022-08-25T01:17:46;4.13;;;2.00;;
42096;SDS011;27754;45.414;11.084;2022-08-25T01:20:16;3.60;;;2.22;;
42096;SDS011;27754;45.414;11.084;2022-08-25T01:22:45;4.57;;;1.90;;
42096;SDS011;27754;45.414;11.084;2022-08-25T01:27:54;5.25;;;1.95;;
42096;SDS011;27754;45.414;11.084;2022-08-25T01:30:22;2.83;;;2.00;;
42096;SDS011;27754;45.414;11.084;2022-08-25T01:32:50;3.20;;;1.92;;
42096;SDS011;27754;45.414;11.084;2022-08-25T01:35:17;5.80;;;2.33;;
42096;SDS011;27754;45.414;11.084;2022-08-25T01:37:44;4.00;;;1.98;;
42096;SDS011;27754;45.414;11.084;2022-08-25T01:40:11;6.18;;;2.40;;
42096;SDS011;27754;45.414;11.084;2022-08-25T01:45:30;7.40;;;2.30;;
42096;SDS011;27754;45.414;11.084;2022-08-25T01:47:58;5.03;;;2.05;;
42096;SDS011;27754;45.414;11.084;2022-08-25T01:50:25;4.53;;;2.38;;
42096;SDS011;27754;45.414;11.084;2022-08-25T01:53:01;3.90;;;2.40;;
42096;SDS011;27754;45.414;11.084;2022-08-25T01:55:43;4.57;;;2.33;;
42096;SDS011;27754;45.414;11.084;2022-08-25T01:58:22;4.45;;;2.05;;
42096;SDS011;27754;45.414;11.084;2022-08-25T02:00:52;4.28;;;2.55;;
42096;SDS011;27754;45.414;11.084;2022-08-25T02:03:21;4.28;;;2.17;;
42096;SDS011;27754;45.414;11.084;2022-08-25T02:05:50;3.55;;;2.30;;
42096;SDS011;27754;45.414;11.084;2022-08-25T02:08:19;3.35;;;2.20;;
42096;SDS011;27754;45.414;11.084;2022-08-25T02:10:48;3.67;;;2.10;;
42096;SDS011;27754;45.414;11.084;2022-08-25T02:13:16;5.47;;;2.22;;
42096;SDS011;27754;45.414;11.084;2022-08-25T02:15:45;3.28;;;2.10;;
42096;SDS011;27754;45.414;11.084;2022-08-25T02:18:19;4.90;;;2.10;;
42096;SDS011;27754;45.414;11.084;2022-08-25T02:20:47;2.55;;;2.00;;
42096;SDS011;27754;45.414;11.084;2022-08-25T02:23:14;2.97;;;2.10;;
42096;SDS011;27754;45.414;11.084;2022-08-25T02:25:41;4.47;;;2.20;;
42096;SDS011;27754;45.414;11.084;2022-08-25T02:28:09;5.03;;;2.10;;
42096;SDS011;27754;45.414;11.084;2022-08-25T02:30:37;4.82;;;2.78;;
42096;SDS011;27754;45.414;11.084;2022-08-25T02:33:05;4.43;;;2.05;;
42096;SDS011;27754;45.414;11.084;2022-08-25T02:35:32;3.25;;;2.50;;
42096;SDS011;27754;45.414;11.084;2022-08-25T02:37:59;5.35;;;3.50;;
42096;SDS011;27754;45.414;11.084;2022-08-25T02:40:26;5.82;;;3.70;;
42096;SDS011;27754;45.414;11.084;2022-08-25T02:42:53;5.70;;;3.88;;
42096;SDS011;27754;45.414;11.084;2022-08-25T02:45:22;7.22;;;4.05;;
42096;SDS011;27754;45.414;11.084;2022-08-25T02:47:49;6.35;;;4.30;;
42096;SDS011;27754;45.414;11.084;2022-08-25T02:50:16;5.05;;;3.65;;
42096;SDS011;27754;45.414;11.084;2022-08-25T02:52:43;5.70;;;3.85;;
42096;SDS011;27754;45.414;11.084;2022-08-25T02:55:11;7.70;;;3.92;;
42096;SDS011;27754;45.414;11.084;2022-08-25T02:57:40;7.05;;;4.50;;
42096;SDS011;27754;45.414;11.084;2022-08-25T03:00:09;7.68;;;4.13;;
42096;SDS011;27754;45.414;11.084;2022-08-25T03:02:38;5.15;;;4.65;;
42096;SDS011;27754;45.414;11.084;2022-08-25T03:05:07;8.43;;;4.43;;
42096;SDS011;27754;45.414;11.084;2022-08-25T03:07:35;7.90;;;4.85;;
42096;SDS011;27754;45.414;11.084;2022-08-25T03:10:10;6.35;;;4.70;;
42096;SDS011;27754;45.414;11.084;2022-08-25T03:12:39;7.60;;;4.60;;
42096;SDS011;27754;45.414;11.084;2022-08-25T03:15:10;6.75;;;4.90;;
42096;SDS011;27754;45.414;11.084;2022-08-25T03:17:45;9.35;;;5.35;;
42096;SDS011;27754;45.414;11.084;2022-08-25T03:20:16;10.50;;;4.43;;
42096;SDS011;27754;45.414;11.084;2022-08-25T03:22:44;9.50;;;4.72;;
42096;SDS011;27754;45.414;11.084;2022-08-25T03:25:11;11.07;;;5.00;;
42096;SDS011;27754;45.414;11.084;2022-08-25T03:30:24;8.05;;;4.65;;
42096;SDS011;27754;45.414;11.084;2022-08-25T03:32:51;18.00;;;5.07;;
42096;SDS011;27754;45.414;11.084;2022-08-25T03:35:19;7.72;;;4.75;;
42096;SDS011;27754;45.414;11.084;2022-08-25T03:37:46;8.55;;;5.10;;
42096;SDS011;27754;45.414;11.084;2022-08-25T03:40:14;11.48;;;5.50;;
42096;SDS011;27754;45.414;11.084;2022-08-25T03:42:43;7.78;;;4.85;;
42096;SDS011;27754;45.414;11.084;2022-08-25T03:45:12;5.93;;;4.43;;
42096;SDS011;27754;45.414;11.084;2022-08-25T03:47:41;6.75;;;4.93;;
42096;SDS011;27754;45.414;11.084;2022-08-25T03:50:12;6.65;;;5.22;;
42096;SDS011;27754;45.414;11.084;2022-08-25T03:52:40;7.03;;;4.85;;
42096;SDS011;27754;45.414;11.084;2022-08-25T03:55:09;10.25;;;6.13;;
42096;SDS011;27754;45.414;11.084;2022-08-25T03:57:37;11.80;;;6.22;;
42096;SDS011;27754;45.414;11.084;2022-08-25T04:00:08;7.13;;;5.60;;
42096;SDS011;27754;45.414;11.084;2022-08-25T04:02:37;13.57;;;5.30;;
42096;SDS011;27754;45.414;11.084;2022-08-25T04:05:05;9.98;;;5.53;;
42096;SDS011;27754;45.414;11.084;2022-08-25T04:07:34;8.50;;;5.53;;
42096;SDS011;27754;45.414;11.084;2022-08-25T04:10:01;6.13;;;4.60;;
42096;SDS011;27754;45.414;11.084;2022-08-25T04:12:28;6.28;;;4.53;;
42096;SDS011;27754;45.414;11.084;2022-08-25T04:14:56;9.02;;;4.90;;
42096;SDS011;27754;45.414;11.084;2022-08-25T04:17:24;14.57;;;5.20;;
42096;SDS011;27754;45.414;11.084;2022-08-25T04:19:51;8.25;;;5.35;;
42096;SDS011;27754;45.414;11.084;2022-08-25T04:22:18;13.63;;;5.75;;
42096;SDS011;27754;45.414;11.084;2022-08-25T04:24:45;10.23;;;7.07;;
42096;SDS011;27754;45.414;11.084;2022-08-25T04:27:12;7.28;;;5.78;;
42096;SDS011;27754;45.414;11.084;2022-08-25T04:29:39;7.10;;;6.07;;
42096;SDS011;27754;45.414;11.084;2022-08-25T04:32:06;8.30;;;6.25;;
42096;SDS011;27754;45.414;11.084;2022-08-25T04:34:33;9.48;;;7.25;;
42096;SDS011;27754;45.414;11.084;2022-08-25T04:37:01;9.15;;;6.50;;
42096;SDS011;27754;45.414;11.084;2022-08-25T04:39:30;8.27;;;5.88;;
42096;SDS011;27754;45.414;11.084;2022-08-25T04:41:57;12.10;;;6.20;;
42096;SDS011;27754;45.414;11.084;2022-08-25T04:44:26;11.43;;;6.03;;
42096;SDS011;27754;45.414;11.084;2022-08-25T04:46:54;11.50;;;6.38;;
42096;SDS011;27754;45.414;11.084;2022-08-25T04:49:21;8.50;;;5.80;;
42096;SDS011;27754;45.414;11.084;2022-08-25T04:51:48;17.20;;;8.68;;
42096;SDS011;27754;45.414;11.084;2022-08-25T04:54:15;16.45;;;9.13;;
42096;SDS011;27754;45.414;11.084;2022-08-25T04:56:46;10.60;;;6.63;;
42096;SDS011;27754;45.414;11.084;2022-08-25T04:59:19;11.10;;;7.05;;
42096;SDS011;27754;45.414;11.084;2022-08-25T05:01:46;9.13;;;5.63;;
42096;SDS011;27754;45.414;11.084;2022-08-25T05:04:21;8.18;;;5.63;;
42096;SDS011;27754;45.414;11.084;2022-08-25T05:06:53;9.00;;;5.43;;
42096;SDS011;27754;45.414;11.084;2022-08-25T05:09:21;7.40;;;5.50;;
42096;SDS011;27754;45.414;11.084;2022-08-25T05:11:50;8.60;;;5.93;;
42096;SDS011;27754;45.414;11.084;2022-08-25T05:14:18;12.70;;;5.78;;
42096;SDS011;27754;45.414;11.084;2022-08-25T05:16:52;10.30;;;5.82;;
42096;SDS011;27754;45.414;11.084;2022-08-25T05:19:20;11.35;;;5.65;;
42096;SDS011;27754;45.414;11.084;2022-08-25T05:21:48;13.45;;;6.68;;
42096;SDS011;27754;45.414;11.084;2022-08-25T05:24:16;16.65;;;6.53;;
42096;SDS011;27754;45.414;11.084;2022-08-25T05:26:44;12.10;;;6.50;;
42096;SDS011;27754;45.414;11.084;2022-08-25T05:29:11;13.90;;;7.15;;
42096;SDS011;27754;45.414;11.084;2022-08-25T05:31:38;7.43;;;6.28;;
42096;SDS011;27754;45.414;11.084;2022-08-25T05:34:10;14.75;;;8.15;;
42096;SDS011;27754;45.414;11.084;2022-08-25T05:36:37;13.70;;;7.22;;
42096;SDS011;27754;45.414;11.084;2022-08-25T05:39:09;8.27;;;6.50;;
42096;SDS011;27754;45.414;11.084;2022-08-25T05:41:36;16.75;;;7.38;;
42096;SDS011;27754;45.414;11.084;2022-08-25T05:44:03;12.90;;;6.80;;
42096;SDS011;27754;45.414;11.084;2022-08-25T05:46:31;12.10;;;7.20;;
42096;SDS011;27754;45.414;11.084;2022-08-25T05:48:58;14.18;;;6.53;;
42096;SDS011;27754;45.414;11.084;2022-08-25T05:51:25;12.75;;;6.18;;
42096;SDS011;27754;45.414;11.084;2022-08-25T05:53:52;11.82;;;6.22;;
42096;SDS011;27754;45.414;11.084;2022-08-25T05:56:19;11.48;;;5.68;;
42096;SDS011;27754;45.414;11.084;2022-08-25T05:58:47;15.50;;;6.22;;
42096;SDS011;27754;45.414;11.084;2022-08-25T06:01:19;16.38;;;6.05;;
42096;SDS011;27754;45.414;11.084;2022-08-25T06:04:08;14.13;;;6.20;;
42096;SDS011;27754;45.414;11.084;2022-08-25T06:06:35;22.70;;;8.40;;
42096;SDS011;27754;45.414;11.084;2022-08-25T06:09:02;19.42;;;7.38;;
42096;SDS011;27754;45.414;11.084;2022-08-25T06:11:32;18.35;;;6.88;;
42096;SDS011;27754;45.414;11.084;2022-08-25T06:13:59;37.28;;;10.43;;
42096;SDS011;27754;45.414;11.084;2022-08-25T06:16:25;15.75;;;7.15;;
42096;SDS011;27754;45.414;11.084;2022-08-25T06:18:53;29.88;;;9.38;;
42096;SDS011;27754;45.414;11.084;2022-08-25T06:21:20;22.42;;;8.07;;
42096;SDS011;27754;45.414;11.084;2022-08-25T06:23:47;20.48;;;7.28;;
42096;SDS011;27754;45.414;11.084;2022-08-25T06:26:14;16.00;;;6.63;;
42096;SDS011;27754;45.414;11.084;2022-08-25T06:28:47;10.10;;;6.30;;
42096;SDS011;27754;45.414;11.084;2022-08-25T06:31:16;9.45;;;5.80;;
42096;SDS011;27754;45.414;11.084;2022-08-25T06:34:02;10.05;;;5.28;;
42096;SDS011;27754;45.414;11.084;2022-08-25T06:36:28;8.57;;;4.72;;
42096;SDS011;27754;45.414;11.084;2022-08-25T06:38:55;12.23;;;4.90;;
42096;SDS011;27754;45.414;11.084;2022-08-25T06:41:22;12.45;;;4.80;;
42096;SDS011;27754;45.414;11.084;2022-08-25T06:44:02;10.48;;;4.28;;
42096;SDS011;27754;45.414;11.084;2022-08-25T06:46:31;8.35;;;4.45;;
42096;SDS011;27754;45.414;11.084;2022-08-25T06:49:03;7.30;;;4.85;;
42096;SDS011;27754;45.414;11.084;2022-08-25T06:51:32;6.60;;;4.20;;
42096;SDS011;27754;45.414;11.084;2022-08-25T06:54:02;8.27;;;4.25;;
42096;SDS011;27754;45.414;11.084;2022-08-25T06:56:30;5.93;;;3.55;;
42096;SDS011;27754;45.414;11.084;2022-08-25T06:58:59;11.18;;;4.45;;
42096;SDS011;27754;45.414;11.084;2022-08-25T07:01:26;6.60;;;4.03;;
42096;SDS011;27754;45.414;11.084;2022-08-25T07:03:57;9.45;;;4.10;;
42096;SDS011;27754;45.414;11.084;2022-08-25T07:06:26;9.13;;;3.70;;
42096;SDS011;27754;45.414;11.084;2022-08-25T07:08:56;12.93;;;4.15;;
42096;SDS011;27754;45.414;11.084;2022-08-25T07:11:24;6.22;;;3.88;;
42096;SDS011;27754;45.414;11.084;2022-08-25T07:13:51;6.18;;;3.17;;
42096;SDS011;27754;45.414;11.084;2022-08-25T07:16:19;10.15;;;3.00;;
42096;SDS011;27754;45.414;11.084;2022-08-25T07:18:47;14.15;;;3.00;;
42096;SDS011;27754;45.414;11.084;2022-08-25T07:21:14;6.53;;;3.20;;
42096;SDS011;27754;45.414;11.084;2022-08-25T07:23:44;9.88;;;3.92;;
42096;SDS011;27754;45.414;11.084;2022-08-25T07:26:16;6.90;;;3.63;;
42096;SDS011;27754;45.414;11.084;2022-08-25T07:29:08;5.40;;;3.03;;
42096;SDS011;27754;45.414;11.084;2022-08-25T07:31:38;7.95;;;4.25;;
42096;SDS011;27754;45.414;11.084;2022-08-25T07:34:05;5.18;;;3.33;;
42096;SDS011;27754;45.414;11.084;2022-08-25T07:36:52;6.60;;;3.67;;
42096;SDS011;27754;45.414;11.084;2022-08-25T07:39:20;6.70;;;3.38;;
42096;SDS011;27754;45.414;11.084;2022-08-25T07:41:48;7.65;;;2.88;;
42096;SDS011;27754;45.414;11.084;2022-08-25T07:44:18;4.68;;;3.03;;
42096;SDS011;27754;45.414;11.084;2022-08-25T07:46:47;7.53;;;2.70;;
42096;SDS011;27754;45.414;11.084;2022-08-25T07:49:16;3.50;;;2.50;;
42096;SDS011;27754;45.414;11.084;2022-08-25T07:51:49;8.02;;;3.00;;
42096;SDS011;27754;45.414;11.084;2022-08-25T07:54:31;6.45;;;3.88;;
42096;SDS011;27754;45.414;11.084;2022-08-25T07:57:01;9.90;;;4.80;;
42096;SDS011;27754;45.414;11.084;2022-08-25T07:59:29;9.50;;;3.97;;
42096;SDS011;27754;45.414;11.084;2022-08-25T08:02:05;8.07;;;4.93;;
42096;SDS011;27754;45.414;11.084;2022-08-25T08:04:44;6.32;;;4.55;;
42096;SDS011;27754;45.414;11.084;2022-08-25T08:07:19;7.90;;;5.03;;
42096;SDS011;27754;45.414;11.084;2022-08-25T08:10:09;8.50;;;4.43;;
42096;SDS011;27754;45.414;11.084;2022-08-25T08:12:57;9.35;;;3.90;;
42096;SDS011;27754;45.414;11.084;2022-08-25T08:15:25;14.02;;;6.88;;
42096;SDS011;27754;45.414;11.084;2022-08-25T08:17:55;9.27;;;5.20;;
42096;SDS011;27754;45.414;11.084;2022-08-25T08:20:24;11.30;;;4.25;;
42096;SDS011;27754;45.414;11.084;2022-08-25T08:22:53;10.80;;;3.50;;
42096;SDS011;27754;45.414;11.084;2022-08-25T08:25:20;6.30;;;4.05;;
42096;SDS011;27754;45.414;11.084;2022-08-25T08:27:54;15.88;;;3.40;;
42096;SDS011;27754;45.414;11.084;2022-08-25T08:30:22;9.68;;;3.00;;
42096;SDS011;27754;45.414;11.084;2022-08-25T08:32:51;8.40;;;3.22;;
42096;SDS011;27754;45.414;11.084;2022-08-25T08:35:35;5.55;;;2.67;;
42096;SDS011;27754;45.414;11.084;2022-08-25T08:38:02;5.75;;;2.10;;
42096;SDS011;27754;45.414;11.084;2022-08-25T08:40:42;7.00;;;2.33;;
42096;SDS011;27754;45.414;11.084;2022-08-25T08:43:34;4.13;;;2.00;;
42096;SDS011;27754;45.414;11.084;2022-08-25T08:46:04;5.55;;;2.45;;
42096;SDS011;27754;45.414;11.084;2022-08-25T08:48:49;5.53;;;2.97;;
42096;SDS011;27754;45.414;11.084;2022-08-25T08:51:25;7.55;;;3.35;;
42096;SDS011;27754;45.414;11.084;2022-08-25T08:54:09;7.53;;;3.90;;
42096;SDS011;27754;45.414;11.084;2022-08-25T08:56:44;5.60;;;3.13;;
42096;SDS011;27754;45.414;11.084;2022-08-25T08:59:16;7.28;;;2.85;;
42096;SDS011;27754;45.414;11.084;2022-08-25T09:01:56;7.93;;;4.35;;
42096;SDS011;27754;45.414;11.084;2022-08-25T09:04:35;7.15;;;3.35;;
42096;SDS011;27754;45.414;11.084;2022-08-25T09:07:13;5.40;;;3.60;;
42096;SDS011;27754;45.414;11.084;2022-08-25T09:09:47;9.75;;;4.40;;
42096;SDS011;27754;45.414;11.084;2022-08-25T09:12:37;6.95;;;4.25;;
42096;SDS011;27754;45.414;11.084;2022-08-25T09:18:30;6.72;;;4.00;;
42096;SDS011;27754;45.414;11.084;2022-08-25T09:27:02;11.02;;;3.22;;
42096;SDS011;27754;45.414;11.084;2022-08-25T09:29:56;6.47;;;2.78;;
42096;SDS011;27754;45.414;11.084;2022-08-25T09:32:42;12.20;;;2.95;;
42096;SDS011;27754;45.414;11.084;2022-08-25T09:35:22;8.55;;;3.40;;
42096;SDS011;27754;45.414;11.084;2022-08-25T09:37:58;13.30;;;3.47;;
42096;SDS011;27754;45.414;11.084;2022-08-25T09:40:32;10.73;;;3.88;;
42096;SDS011;27754;45.414;11.084;2022-08-25T09:43:02;11.32;;;3.60;;
42096;SDS011;27754;45.414;11.084;2022-08-25T09:48:25;8.93;;;2.80;;
42096;SDS011;27754;45.414;11.084;2022-08-25T09:56:50;7.93;;;2.80;;
42096;SDS011;27754;45.414;11.084;2022-08-25T10:02:44;5.70;;;2.72;;
42096;SDS011;27754;45.414;11.084;2022-08-25T10:04:52;3.58;;;2.00;;
42096;SDS011;27754;45.414;11.084;2022-08-25T10:07:25;4.82;;;3.22;;
42096;SDS011;27754;45.414;11.084;2022-08-25T10:09:59;6.32;;;2.90;;
42096;SDS011;27754;45.414;11.084;2022-08-25T10:12:40;3.03;;;2.10;;
42096;SDS011;27754;45.414;11.084;2022-08-25T10:18:29;5.15;;;2.72;;
42096;SDS011;27754;45.414;11.084;2022-08-25T10:23:33;4.95;;;2.15;;
42096;SDS011;27754;45.414;11.084;2022-08-25T10:26:08;4.72;;;2.72;;
42096;SDS011;27754;45.414;11.084;2022-08-25T10:31:47;7.40;;;2.33;;
42096;SDS011;27754;45.414;11.084;2022-08-25T10:35:08;3.20;;;2.25;;
42096;SDS011;27754;45.414;11.084;2022-08-25T10:43:02;14.68;;;3.03;;
42096;SDS011;27754;45.414;11.084;2022-08-25T10:45:42;10.50;;;3.25;;
42096;SDS011;27754;45.414;11.084;2022-08-25T10:56:19;8.25;;;3.05;;
42096;SDS011;27754;45.414;11.084;2022-08-25T10:58:55;4.55;;;2.60;;
42096;SDS011;27754;45.414;11.084;2022-08-25T11:04:49;8.82;;;2.60;;
42096;SDS011;27754;45.414;11.084;2022-08-25T11:07:27;3.72;;;2.67;;
42096;SDS011;27754;45.414;11.084;2022-08-25T11:10:02;4.90;;;2.50;;
42096;SDS011;27754;45.414;11.084;2022-08-25T11:12:48;8.57;;;2.47;;
42096;SDS011;27754;45.414;11.084;2022-08-25T11:15:28;5.22;;;2.63;;
42096;SDS011;27754;45.414;11.084;2022-08-25T11:18:01;4.70;;;2.13;;
42096;SDS011;27754;45.414;11.084;2022-08-25T11:23:40;4.22;;;2.30;;
42096;SDS011;27754;45.414;11.084;2022-08-25T11:26:16;7.43;;;2.33;;
42096;SDS011;27754;45.414;11.084;2022-08-25T11:29:00;8.40;;;2.38;;
42096;SDS011;27754;45.414;11.084;2022-08-25T11:31:44;2.90;;;2.17;;
42096;SDS011;27754;45.414;11.084;2022-08-25T11:34:18;4.55;;;2.25;;
42096;SDS011;27754;45.414;11.084;2022-08-25T11:36:51;6.10;;;2.20;;
42096;SDS011;27754;45.414;11.084;2022-08-25T11:42:15;5.03;;;2.20;;
42096;SDS011;27754;45.414;11.084;2022-08-25T11:45:05;4.32;;;2.42;;
42096;SDS011;27754;45.414;11.084;2022-08-25T11:50:36;6.95;;;2.40;;
42096;SDS011;27754;45.414;11.084;2022-08-25T11:53:33;5.88;;;2.90;;
42096;SDS011;27754;45.414;11.084;2022-08-25T11:56:11;3.13;;;2.15;;
42096;SDS011;27754;45.414;11.084;2022-08-25T11:59:00;4.68;;;2.38;;
42096;SDS011;27754;45.414;11.084;2022-08-25T12:15:20;8.68;;;2.80;;
42096;SDS011;27754;45.414;11.084;2022-08-25T12:23:39;10.77;;;2.25;;
42096;SDS011;27754;45.414;11.084;2022-08-25T12:26:29;6.43;;;2.65;;
42096;SDS011;27754;45.414;11.084;2022-08-25T12:29:32;3.08;;;2.10;;
42096;SDS011;27754;45.414;11.084;2022-08-25T12:32:18;4.38;;;2.10;;
42096;SDS011;27754;45.414;11.084;2022-08-25T12:40:30;3.25;;;2.25;;
42096;SDS011;27754;45.414;11.084;2022-08-25T12:43:43;9.05;;;2.50;;
42096;SDS011;27754;45.414;11.084;2022-08-25T12:48:52;6.43;;;2.95;;
42096;SDS011;27754;45.414;11.084;2022-08-25T12:51:24;6.75;;;2.47;;
42096;SDS011;27754;45.414;11.084;2022-08-25T12:56:37;3.95;;;2.50;;
42096;SDS011;27754;45.414;11.084;2022-08-25T12:59:17;6.22;;;2.80;;
42096;SDS011;27754;45.414;11.084;2022-08-25T13:02:22;3.55;;;2.60;;
42096;SDS011;27754;45.414;11.084;2022-08-25T13:16:00;6.65;;;2.50;;
42096;SDS011;27754;45.414;11.084;2022-08-25T13:18:33;6.22;;;2.30;;
42096;SDS011;27754;45.414;11.084;2022-08-25T13:21:12;5.18;;;2.35;;
42096;SDS011;27754;45.414;11.084;2022-08-25T13:23:46;4.28;;;2.30;;
42096;SDS011;27754;45.414;11.084;2022-08-25T13:26:23;8.02;;;2.55;;
42096;SDS011;27754;45.414;11.084;2022-08-25T13:29:00;5.53;;;2.15;;
42096;SDS011;27754;45.414;11.084;2022-08-25T13:31:39;6.38;;;2.40;;
42096;SDS011;27754;45.414;11.084;2022-08-25T13:34:21;4.13;;;2.35;;
42096;SDS011;27754;45.414;11.084;2022-08-25T13:37:08;7.68;;;2.47;;
42096;SDS011;27754;45.414;11.084;2022-08-25T13:40:21;4.95;;;2.50;;
42096;SDS011;27754;45.414;11.084;2022-08-25T13:43:01;3.83;;;2.33;;
42096;SDS011;27754;45.414;11.084;2022-08-25T13:45:32;3.13;;;2.20;;
42096;SDS011;27754;45.414;11.084;2022-08-25T13:48:10;4.25;;;2.45;;
42096;SDS011;27754;45.414;11.084;2022-08-25T13:50:48;5.18;;;2.22;;
42096;SDS011;27754;45.414;11.084;2022-08-25T13:53:22;4.30;;;2.42;;
42096;SDS011;27754;45.414;11.084;2022-08-25T13:55:56;5.80;;;2.70;;
42096;SDS011;27754;45.414;11.084;2022-08-25T13:58:29;5.57;;;2.53;;
42096;SDS011;27754;45.414;11.084;2022-08-25T14:01:13;6.72;;;2.10;;
42096;SDS011;27754;45.414;11.084;2022-08-25T14:04:20;7.72;;;2.53;;
42096;SDS011;27754;45.414;11.084;2022-08-25T14:12:28;7.03;;;2.50;;
42096;SDS011;27754;45.414;11.084;2022-08-25T14:15:00;5.18;;;2.88;;
42096;SDS011;27754;45.414;11.084;2022-08-25T14:17:30;7.13;;;2.53;;
42096;SDS011;27754;45.414;11.084;2022-08-25T14:20:13;8.73;;;2.30;;
42096;SDS011;27754;45.414;11.084;2022-08-25T14:22:44;6.28;;;2.67;;
42096;SDS011;27754;45.414;11.084;2022-08-25T14:25:11;4.43;;;2.55;;
42096;SDS011;27754;45.414;11.084;2022-08-25T14:27:42;7.07;;;2.75;;
42096;SDS011;27754;45.414;11.084;2022-08-25T14:30:32;9.90;;;2.88;;
42096;SDS011;27754;45.414;11.084;2022-08-25T14:33:01;5.03;;;2.17;;
42096;SDS011;27754;45.414;11.084;2022-08-25T14:35:29;7.50;;;2.83;;
42096;SDS011;27754;45.414;11.084;2022-08-25T14:37:57;5.60;;;2.58;;
42096;SDS011;27754;45.414;11.084;2022-08-25T14:40:24;6.53;;;2.67;;
42096;SDS011;27754;45.414;11.084;2022-08-25T14:42:52;6.38;;;2.63;;
42096;SDS011;27754;45.414;11.084;2022-08-25T14:45:19;6.20;;;2.60;;
42096;SDS011;27754;45.414;11.084;2022-08-25T14:47:46;5.85;;;2.75;;
42096;SDS011;27754;45.414;11.084;2022-08-25T14:50:15;9.00;;;2.70;;
42096;SDS011;27754;45.414;11.084;2022-08-25T14:52:46;4.03;;;2.28;;
42096;SDS011;27754;45.414;11.084;2022-08-25T14:55:17;15.35;;;2.90;;
42096;SDS011;27754;45.414;11.084;2022-08-25T14:57:57;6.63;;;3.15;;
42096;SDS011;27754;45.414;11.084;2022-08-25T15:00:24;5.13;;;2.38;;
42096;SDS011;27754;45.414;11.084;2022-08-25T15:02:51;3.65;;;2.22;;
42096;SDS011;27754;45.414;11.084;2022-08-25T15:05:20;7.85;;;2.42;;
42096;SDS011;27754;45.414;11.084;2022-08-25T15:07:54;4.95;;;2.78;;
42096;SDS011;27754;45.414;11.084;2022-08-25T15:10:40;6.65;;;3.03;;
42096;SDS011;27754;45.414;11.084;2022-08-25T15:13:08;7.03;;;3.10;;
42096;SDS011;27754;45.414;11.084;2022-08-25T15:15:37;8.82;;;2.95;;
42096;SDS011;27754;45.414;11.084;2022-08-25T15:18:18;5.50;;;2.78;;
42096;SDS011;27754;45.414;11.084;2022-08-25T15:20:47;6.60;;;2.30;;
42096;SDS011;27754;45.414;11.084;2022-08-25T15:23:16;5.05;;;2.47;;
42096;SDS011;27754;45.414;11.084;2022-08-25T15:25:44;5.05;;;2.42;;
42096;SDS011;27754;45.414;11.084;2022-08-25T15:28:13;5.72;;;2.30;;
42096;SDS011;27754;45.414;11.084;2022-08-25T15:30:43;6.63;;;2.40;;
42096;SDS011;27754;45.414;11.084;2022-08-25T15:33:11;6.35;;;2.78;;
42096;SDS011;27754;45.414;11.084;2022-08-25T15:35:39;6.32;;;2.60;;
42096;SDS011;27754;45.414;11.084;2022-08-25T15:38:08;6.88;;;2.80;;
42096;SDS011;27754;45.414;11.084;2022-08-25T15:40:35;12.20;;;7.05;;
42096;SDS011;27754;45.414;11.084;2022-08-25T15:43:04;6.22;;;2.53;;
42096;SDS011;27754;45.414;11.084;2022-08-25T15:45:32;6.25;;;2.63;;
42096;SDS011;27754;45.414;11.084;2022-08-25T15:48:02;3.08;;;2.30;;
42096;SDS011;27754;45.414;11.084;2022-08-25T15:50:35;6.60;;;2.67;;
42096;SDS011;27754;45.414;11.084;2022-08-25T15:53:03;5.85;;;2.42;;
42096;SDS011;27754;45.414;11.084;2022-08-25T15:55:37;5.93;;;2.40;;
42096;SDS011;27754;45.414;11.084;2022-08-25T15:58:05;5.70;;;2.65;;
42096;SDS011;27754;45.414;11.084;2022-08-25T16:00:34;4.07;;;2.50;;
42096;SDS011;27754;45.414;11.084;2022-08-25T16:03:03;6.13;;;2.55;;
42096;SDS011;27754;45.414;11.084;2022-08-25T16:05:34;3.97;;;2.40;;
42096;SDS011;27754;45.414;11.084;2022-08-25T16:08:02;4.88;;;2.53;;
42096;SDS011;27754;45.414;11.084;2022-08-25T16:10:37;7.25;;;2.47;;
42096;SDS011;27754;45.414;11.084;2022-08-25T16:13:06;4.95;;;2.30;;
42096;SDS011;27754;45.414;11.084;2022-08-25T16:15:34;6.40;;;2.40;;
42096;SDS011;27754;45.414;11.084;2022-08-25T16:18:02;7.97;;;2.90;;
42096;SDS011;27754;45.414;11.084;2022-08-25T16:20:33;7.75;;;3.13;;
42096;SDS011;27754;45.414;11.084;2022-08-25T16:23:01;12.32;;;3.28;;
42096;SDS011;27754;45.414;11.084;2022-08-25T16:25:29;6.05;;;2.80;;
42096;SDS011;27754;45.414;11.084;2022-08-25T16:27:56;6.50;;;2.60;;
42096;SDS011;27754;45.414;11.084;2022-08-25T16:30:23;7.68;;;2.53;;
42096;SDS011;27754;45.414;11.084;2022-08-25T16:32:50;5.43;;;2.22;;
42096;SDS011;27754;45.414;11.084;2022-08-25T16:35:17;4.88;;;2.53;;
42096;SDS011;27754;45.414;11.084;2022-08-25T16:37:44;7.82;;;2.50;;
42096;SDS011;27754;45.414;11.084;2022-08-25T16:40:13;6.32;;;2.60;;
42096;SDS011;27754;45.414;11.084;2022-08-25T16:42:42;8.40;;;5.95;;
42096;SDS011;27754;45.414;11.084;2022-08-25T16:45:10;6.57;;;3.40;;
42096;SDS011;27754;45.414;11.084;2022-08-25T16:47:37;7.18;;;3.88;;
42096;SDS011;27754;45.414;11.084;2022-08-25T16:50:08;7.25;;;2.92;;